Time;durP1;ratioP1;P1;durP2;ratioP2;P2;SDS_P1;SDS_P2;PMS_P1;PMS_P2;Temp;Humidity;BMP_temperature;BMP_pressure;BME280_temperature;BME280_humidity;BME280_pressure;Samples;Min_cycle;Max_cycle;Signal;HPM_P1;HPM_P2
2022/10/10 00:01:21;;;;;;;7.03;4.57;;;;;;;;;;5074176;28;20040;-71
2022/10/10 00:03:48;;;;;;;6.30;4.55;;;;;;;;;;5074250;28;20522;-71
2022/10/10 00:06:14;;;;;;;7.25;4.93;;;;;;;;;;5074277;28;20044;-71
2022/10/10 00:08:41;;;;;;;11.57;5.22;;;;;;;;;;5073926;28;20086;-71
2022/10/10 00:11:07;;;;;;;10.65;5.05;;;;;;;;;;5073936;28;20448;-71
2022/10/10 00:13:34;;;;;;;8.70;4.90;;;;;;;;;;5074280;28;20123;-71
2022/10/10 00:16:00;;;;;;;8.75;5.35;;;;;;;;;;5074287;28;20042;-71
2022/10/10 00:18:26;;;;;;;5.55;4.55;;;;;;;;;;5074127;28;20042;-71
2022/10/10 00:20:53;;;;;;;8.73;4.93;;;;;;;;;;5074431;28;20047;-71
2022/10/10 00:23:19;;;;;;;10.82;5.28;;;;;;;;;;5054852;28;20514;-71
2022/10/10 00:25:45;;;;;;;11.73;5.00;;;;;;;;;;5074167;28;20039;-71
2022/10/10 00:28:11;;;;;;;6.85;4.85;;;;;;;;;;5073918;28;20048;-71
2022/10/10 00:30:38;;;;;;;11.20;5.07;;;;;;;;;;5073947;28;20032;-70
2022/10/10 00:33:04;;;;;;;8.85;5.03;;;;;;;;;;5074045;28;20036;-70
2022/10/10 00:35:30;;;;;;;10.13;5.22;;;;;;;;;;5074065;28;20036;-70
2022/10/10 00:37:56;;;;;;;8.43;5.00;;;;;;;;;;5074055;28;20032;-70
2022/10/10 00:40:23;;;;;;;11.18;5.70;;;;;;;;;;5073862;28;20043;-71
2022/10/10 00:42:49;;;;;;;7.95;4.72;;;;;;;;;;5073784;28;20044;-71
2022/10/10 00:45:23;;;;;;;6.93;4.75;;;;;;;;;;5073901;28;20036;-70
2022/10/10 00:47:51;;;;;;;7.68;5.32;;;;;;;;;;5073528;28;20452;-71
2022/10/10 00:50:18;;;;;;;6.95;4.93;;;;;;;;;;5073773;28;20048;-70
2022/10/10 00:52:44;;;;;;;10.38;5.78;;;;;;;;;;5073799;28;20556;-71
2022/10/10 00:55:11;;;;;;;8.32;5.30;;;;;;;;;;5073947;28;20075;-70
2022/10/10 00:57:37;;;;;;;12.07;5.38;;;;;;;;;;5057001;28;20039;-71
2022/10/10 01:00:04;;;;;;;10.68;5.60;;;;;;;;;;5073564;28;20040;-70
2022/10/10 01:02:30;;;;;;;12.68;5.60;;;;;;;;;;5074052;28;20058;-71
2022/10/10 01:04:56;;;;;;;8.18;5.03;;;;;;;;;;5071807;28;20036;-71
2022/10/10 01:07:25;;;;;;;13.88;5.47;;;;;;;;;;5073566;28;20131;-70
2022/10/10 01:09:52;;;;;;;11.82;5.45;;;;;;;;;;5073525;28;20383;-71
2022/10/10 01:12:37;;;;;;;14.52;5.25;;;;;;;;;;5091680;28;20101;-70
2022/10/10 01:15:06;;;;;;;6.78;5.38;;;;;;;;;;5076712;28;20036;-70
2022/10/10 01:17:35;;;;;;;9.02;5.00;;;;;;;;;;5077532;28;20032;-70
2022/10/10 01:20:04;;;;;;;9.95;5.63;;;;;;;;;;5076989;28;20054;-70
2022/10/10 01:22:40;;;;;;;9.05;5.72;;;;;;;;;;5077263;28;20082;-70
2022/10/10 01:25:06;;;;;;;8.25;5.70;;;;;;;;;;5060476;28;20121;-70
2022/10/10 01:27:42;;;;;;;7.85;5.00;;;;;;;;;;5077286;28;20424;-70
2022/10/10 01:30:13;;;;;;;9.30;4.95;;;;;;;;;;5076962;28;20487;-70
2022/10/10 01:32:45;;;;;;;9.75;5.97;;;;;;;;;;5075657;28;20089;-70
2022/10/10 01:35:29;;;;;;;8.63;5.50;;;;;;;;;;5076933;28;20098;-71
2022/10/10 01:38:09;;;;;;;9.85;5.65;;;;;;;;;;5077038;28;20290;-70
2022/10/10 01:40:41;;;;;;;9.75;5.90;;;;;;;;;;5077399;28;20070;-70
2022/10/10 01:43:08;;;;;;;10.07;5.95;;;;;;;;;;5060424;28;20062;-71
2022/10/10 01:45:34;;;;;;;9.15;5.93;;;;;;;;;;5075645;28;20479;-70
2022/10/10 01:48:05;;;;;;;12.65;5.82;;;;;;;;;;5076756;28;20036;-70
2022/10/10 01:50:40;;;;;;;12.00;6.03;;;;;;;;;;5076618;28;20035;-70
2022/10/10 01:53:11;;;;;;;9.82;5.40;;;;;;;;;;5076722;28;20075;-71
2022/10/10 01:55:49;;;;;;;9.07;5.60;;;;;;;;;;5075984;28;20479;-71
2022/10/10 01:58:33;;;;;;;8.10;5.80;;;;;;;;;;5094696;28;20063;-70
2022/10/10 02:01:07;;;;;;;10.70;6.25;;;;;;;;;;5074336;28;20040;-71
2022/10/10 02:03:37;;;;;;;7.72;5.70;;;;;;;;;;5076446;28;20042;-70
2022/10/10 02:06:06;;;;;;;9.02;6.10;;;;;;;;;;5076336;28;20040;-70
2022/10/10 02:08:37;;;;;;;10.73;6.22;;;;;;;;;;5076215;28;20127;-71
2022/10/10 02:11:04;;;;;;;11.32;6.13;;;;;;;;;;5076398;28;20475;-70
2022/10/10 02:13:35;;;;;;;12.02;6.03;;;;;;;;;;5076407;28;20051;-70
2022/10/10 02:16:02;;;;;;;10.38;5.95;;;;;;;;;;5075604;28;20422;-70
2022/10/10 02:18:30;;;;;;;10.32;5.60;;;;;;;;;;5059598;28;20055;-71
2022/10/10 02:20:57;;;;;;;13.57;6.22;;;;;;;;;;5075431;28;20391;-70
2022/10/10 02:23:23;;;;;;;8.10;6.35;;;;;;;;;;5076244;28;20043;-70
2022/10/10 02:25:51;;;;;;;8.75;5.97;;;;;;;;;;5058301;28;20039;-70
2022/10/10 02:28:23;;;;;;;9.18;6.13;;;;;;;;;;5076221;28;20429;-70
2022/10/10 02:30:52;;;;;;;9.63;6.35;;;;;;;;;;5059670;28;20036;-70
2022/10/10 02:33:30;;;;;;;10.00;5.68;;;;;;;;;;5076592;28;20043;-70
2022/10/10 02:35:57;;;;;;;11.93;6.43;;;;;;;;;;5076568;28;20039;-70
2022/10/10 02:38:23;;;;;;;11.25;6.05;;;;;;;;;;5076256;28;20044;-70
2022/10/10 02:40:49;;;;;;;10.07;5.97;;;;;;;;;;5058855;28;20040;-70
2022/10/10 02:43:17;;;;;;;9.05;5.82;;;;;;;;;;5075582;28;20040;-71
2022/10/10 02:45:43;;;;;;;11.90;6.60;;;;;;;;;;5075934;28;20040;-70
2022/10/10 02:48:09;;;;;;;8.40;5.45;;;;;;;;;;5075707;28;20047;-70
2022/10/10 02:50:35;;;;;;;10.93;6.50;;;;;;;;;;5075903;28;20085;-70
2022/10/10 02:53:01;;;;;;;7.72;6.28;;;;;;;;;;5075701;28;20032;-71
2022/10/10 02:55:28;;;;;;;10.43;6.10;;;;;;;;;;5075733;28;20457;-70
2022/10/10 02:57:54;;;;;;;8.50;6.05;;;;;;;;;;5075450;28;20089;-71
2022/10/10 03:00:20;;;;;;;11.63;6.15;;;;;;;;;;5075603;28;20085;-71
2022/10/10 03:02:46;;;;;;;12.98;6.38;;;;;;;;;;5075457;28;20105;-71
2022/10/10 03:05:12;;;;;;;9.18;6.38;;;;;;;;;;5059069;28;20039;-71
2022/10/10 03:07:39;;;;;;;12.13;6.18;;;;;;;;;;5058684;28;20040;-71
2022/10/10 03:10:06;;;;;;;12.93;6.78;;;;;;;;;;5075000;28;20073;-70
2022/10/10 03:12:33;;;;;;;9.48;6.13;;;;;;;;;;5074920;28;20060;-71
2022/10/10 03:14:59;;;;;;;9.15;6.70;;;;;;;;;;5075306;28;20499;-71
2022/10/10 03:17:25;;;;;;;12.10;6.55;;;;;;;;;;5075158;28;20126;-71
2022/10/10 03:19:51;;;;;;;10.43;6.35;;;;;;;;;;5075044;28;20039;-71
2022/10/10 03:22:17;;;;;;;10.20;6.05;;;;;;;;;;5058444;28;20046;-71
2022/10/10 03:24:43;;;;;;;10.85;6.53;;;;;;;;;;5075190;28;20119;-71
2022/10/10 03:27:09;;;;;;;10.07;5.80;;;;;;;;;;5074754;28;20483;-71
2022/10/10 03:29:35;;;;;;;10.48;6.00;;;;;;;;;;5074739;28;20036;-71
2022/10/10 03:32:01;;;;;;;8.52;6.07;;;;;;;;;;5075084;28;20024;-71
2022/10/10 03:34:27;;;;;;;8.73;6.45;;;;;;;;;;5058397;28;20043;-71
2022/10/10 03:36:54;;;;;;;13.32;6.13;;;;;;;;;;5074423;28;20035;-70
2022/10/10 03:39:20;;;;;;;11.63;6.40;;;;;;;;;;5058096;28;20033;-71
2022/10/10 03:41:46;;;;;;;9.73;5.97;;;;;;;;;;5058074;28;20059;-71
2022/10/10 03:44:12;;;;;;;9.05;6.00;;;;;;;;;;5074644;28;20035;-70
2022/10/10 03:46:39;;;;;;;9.77;5.95;;;;;;;;;;5074687;28;20039;-70
2022/10/10 03:49:05;;;;;;;10.60;6.72;;;;;;;;;;5074260;28;20044;-70
2022/10/10 03:51:31;;;;;;;11.38;6.35;;;;;;;;;;5058045;28;20093;-71
2022/10/10 03:53:57;;;;;;;8.82;6.30;;;;;;;;;;5057670;28;20085;-71
2022/10/10 03:56:23;;;;;;;8.45;6.13;;;;;;;;;;5074482;28;20036;-71
2022/10/10 03:58:49;;;;;;;12.48;7.05;;;;;;;;;;5074533;28;20139;-71
2022/10/10 04:01:15;;;;;;;9.63;6.93;;;;;;;;;;5074520;28;20097;-71
2022/10/10 04:03:41;;;;;;;11.63;7.05;;;;;;;;;;5074222;28;20089;-71
2022/10/10 04:06:08;;;;;;;9.70;6.13;;;;;;;;;;5074464;28;20110;-71
2022/10/10 04:08:34;;;;;;;10.52;6.60;;;;;;;;;;5057579;28;20433;-70
2022/10/10 04:11:00;;;;;;;11.18;6.30;;;;;;;;;;5073949;28;20036;-70
2022/10/10 04:13:26;;;;;;;9.25;6.32;;;;;;;;;;5074434;28;20043;-70
2022/10/10 04:15:53;;;;;;;8.85;6.05;;;;;;;;;;5057000;28;20043;-70
2022/10/10 04:18:19;;;;;;;11.07;5.88;;;;;;;;;;5073412;28;20031;-70
2022/10/10 04:20:45;;;;;;;9.48;6.32;;;;;;;;;;5057722;28;20032;-70
2022/10/10 04:23:11;;;;;;;8.73;6.35;;;;;;;;;;5055218;28;20036;-70
2022/10/10 04:25:37;;;;;;;11.00;6.82;;;;;;;;;;5074198;28;20531;-70
2022/10/10 04:28:03;;;;;;;11.23;6.35;;;;;;;;;;5074145;28;20043;-70
2022/10/10 04:30:34;;;;;;;11.25;6.68;;;;;;;;;;5073521;28;20040;-70
2022/10/10 04:33:00;;;;;;;11.77;6.60;;;;;;;;;;5091479;28;20510;-70
2022/10/10 04:35:26;;;;;;;10.02;6.10;;;;;;;;;;5073410;28;20453;-70
2022/10/10 04:37:52;;;;;;;11.43;6.65;;;;;;;;;;5056632;28;20047;-70
2022/10/10 04:40:18;;;;;;;10.98;7.05;;;;;;;;;;5072822;28;20040;-70
2022/10/10 04:42:44;;;;;;;9.45;6.60;;;;;;;;;;5073464;28;20036;-70
2022/10/10 04:45:10;;;;;;;12.85;6.57;;;;;;;;;;5073082;28;20032;-70
2022/10/10 04:47:36;;;;;;;8.55;6.32;;;;;;;;;;5073161;28;20032;-70
2022/10/10 04:50:03;;;;;;;12.52;6.75;;;;;;;;;;5059757;28;20032;-70
2022/10/10 04:52:29;;;;;;;10.70;6.53;;;;;;;;;;5060441;28;20786;-70
2022/10/10 04:54:55;;;;;;;12.32;6.55;;;;;;;;;;5076580;28;20044;-70
2022/10/10 04:57:21;;;;;;;13.48;7.32;;;;;;;;;;5075474;28;20040;-70
2022/10/10 04:59:47;;;;;;;11.13;6.60;;;;;;;;;;5076731;28;20040;-70
2022/10/10 05:02:13;;;;;;;15.48;6.45;;;;;;;;;;5060554;28;20052;-70
2022/10/10 05:04:39;;;;;;;10.05;6.13;;;;;;;;;;5060648;28;20204;-70
2022/10/10 05:07:05;;;;;;;10.00;6.40;;;;;;;;;;5060426;28;20036;-70
2022/10/10 05:09:32;;;;;;;10.00;6.88;;;;;;;;;;5076853;28;20040;-70
2022/10/10 05:11:59;;;;;;;12.93;6.75;;;;;;;;;;5075935;28;20047;-70
2022/10/10 05:14:25;;;;;;;12.35;6.55;;;;;;;;;;5076110;28;20166;-70
2022/10/10 05:16:51;;;;;;;9.80;6.28;;;;;;;;;;5074144;28;20120;-70
2022/10/10 05:19:17;;;;;;;13.60;6.55;;;;;;;;;;5077141;28;20480;-71
2022/10/10 05:21:43;;;;;;;11.48;7.00;;;;;;;;;;5077166;28;20031;-70
2022/10/10 05:24:09;;;;;;;8.27;6.38;;;;;;;;;;5060093;28;20127;-70
2022/10/10 05:26:36;;;;;;;10.13;6.15;;;;;;;;;;5076847;28;20079;-70
2022/10/10 05:29:02;;;;;;;11.48;6.32;;;;;;;;;;5076559;28;20050;-70
2022/10/10 05:31:28;;;;;;;10.35;6.43;;;;;;;;;;5095340;28;20067;-70
2022/10/10 05:33:54;;;;;;;9.50;6.60;;;;;;;;;;5059852;28;20036;-70
2022/10/10 05:36:20;;;;;;;12.20;6.78;;;;;;;;;;5076503;28;20036;-70
2022/10/10 05:38:46;;;;;;;10.32;6.82;;;;;;;;;;5059708;28;20044;-70
2022/10/10 05:41:12;;;;;;;12.93;6.93;;;;;;;;;;5076866;28;20096;-70
2022/10/10 05:43:40;;;;;;;10.45;6.90;;;;;;;;;;5076362;28;20075;-70
2022/10/10 05:46:06;;;;;;;15.57;7.35;;;;;;;;;;5076613;28;20077;-70
2022/10/10 05:48:32;;;;;;;8.95;6.72;;;;;;;;;;5076417;28;20588;-70
2022/10/10 05:50:59;;;;;;;10.02;6.50;;;;;;;;;;5074090;28;20044;-69
2022/10/10 05:53:26;;;;;;;17.05;6.88;;;;;;;;;;5076618;28;20040;-69
2022/10/10 05:55:53;;;;;;;9.43;6.72;;;;;;;;;;5076762;28;20119;-70
2022/10/10 05:58:19;;;;;;;10.43;6.88;;;;;;;;;;5059910;28;20051;-70
2022/10/10 06:00:46;;;;;;;10.27;6.40;;;;;;;;;;5074603;28;20036;-70
2022/10/10 06:03:15;;;;;;;12.10;6.68;;;;;;;;;;5059605;28;20454;-70
2022/10/10 06:05:42;;;;;;;11.88;7.38;;;;;;;;;;5076350;28;20044;-71
2022/10/10 06:08:08;;;;;;;12.75;6.57;;;;;;;;;;5076112;28;20040;-70
2022/10/10 06:10:34;;;;;;;9.55;6.88;;;;;;;;;;5075754;28;20066;-70
2022/10/10 06:13:01;;;;;;;12.23;6.90;;;;;;;;;;5075956;28;20505;-70
2022/10/10 06:15:27;;;;;;;10.13;6.30;;;;;;;;;;5075841;28;20507;-70
2022/10/10 06:17:53;;;;;;;18.13;7.15;;;;;;;;;;5075935;28;21530;-70
2022/10/10 06:20:19;;;;;;;13.85;6.70;;;;;;;;;;5075962;28;20039;-70
2022/10/10 06:22:45;;;;;;;9.63;6.40;;;;;;;;;;5075728;28;20572;-70
2022/10/10 06:25:11;;;;;;;12.13;7.15;;;;;;;;;;5075378;28;20085;-70
2022/10/10 06:27:37;;;;;;;14.25;7.07;;;;;;;;;;5075211;28;20387;-70
2022/10/10 06:30:03;;;;;;;9.27;6.88;;;;;;;;;;5059190;28;20512;-71
2022/10/10 06:32:30;;;;;;;11.13;6.80;;;;;;;;;;5075464;28;20044;-71
2022/10/10 06:34:56;;;;;;;12.27;7.40;;;;;;;;;;5059129;28;20040;-71
2022/10/10 06:37:22;;;;;;;11.90;6.10;;;;;;;;;;5075645;28;20028;-70
2022/10/10 06:39:48;;;;;;;12.35;7.05;;;;;;;;;;5075709;28;20060;-70
2022/10/10 06:42:14;;;;;;;11.85;6.78;;;;;;;;;;5072559;28;20576;-71
2022/10/10 06:44:40;;;;;;;10.68;6.95;;;;;;;;;;5076172;28;20508;-70
2022/10/10 06:47:07;;;;;;;10.00;7.40;;;;;;;;;;5075021;28;20039;-71
2022/10/10 06:49:33;;;;;;;10.13;6.55;;;;;;;;;;5075694;28;20044;-70
2022/10/10 06:51:59;;;;;;;12.07;7.40;;;;;;;;;;5058532;28;20040;-70
2022/10/10 06:54:25;;;;;;;12.35;7.72;;;;;;;;;;5075247;28;20415;-71
2022/10/10 06:56:51;;;;;;;11.15;7.57;;;;;;;;;;5074945;28;20111;-70
2022/10/10 06:59:17;;;;;;;12.82;6.78;;;;;;;;;;5071624;28;20498;-71
2022/10/10 07:01:43;;;;;;;15.57;6.80;;;;;;;;;;5074004;28;20088;-71
2022/10/10 07:04:10;;;;;;;12.80;6.50;;;;;;;;;;5073480;28;20063;-70
2022/10/10 07:06:37;;;;;;;11.57;6.95;;;;;;;;;;5075481;28;20123;-70
2022/10/10 07:09:03;;;;;;;13.65;6.82;;;;;;;;;;5075194;28;20083;-70
2022/10/10 07:11:29;;;;;;;11.25;6.72;;;;;;;;;;5074731;28;20089;-70
2022/10/10 07:13:55;;;;;;;13.82;7.15;;;;;;;;;;5075491;28;20044;-70
2022/10/10 07:16:22;;;;;;;14.02;6.78;;;;;;;;;;5075507;28;20036;-70
2022/10/10 07:18:48;;;;;;;13.63;7.50;;;;;;;;;;5076017;28;20036;-71
2022/10/10 07:21:14;;;;;;;12.48;6.93;;;;;;;;;;5075675;28;20039;-71
2022/10/10 07:23:40;;;;;;;9.18;6.80;;;;;;;;;;5083094;28;20514;-72
2022/10/10 07:26:09;;;;;;;12.30;6.88;;;;;;;;;;5076077;28;20060;-71
2022/10/10 07:28:35;;;;;;;12.95;7.25;;;;;;;;;;5072230;28;20120;-71
2022/10/10 07:31:03;;;;;;;13.93;7.95;;;;;;;;;;5059492;28;20054;-72
2022/10/10 07:33:48;;;;;;;10.38;6.80;;;;;;;;;;5074721;28;20131;-71
2022/10/10 07:36:15;;;;;;;11.18;6.97;;;;;;;;;;5076558;28;20089;-72
2022/10/10 07:38:41;;;;;;;12.73;7.07;;;;;;;;;;5075851;28;20048;-72
2022/10/10 07:41:08;;;;;;;16.77;7.35;;;;;;;;;;5076291;28;20032;-72
2022/10/10 07:43:34;;;;;;;10.68;6.95;;;;;;;;;;5075550;28;20043;-72
2022/10/10 07:46:00;;;;;;;13.25;7.43;;;;;;;;;;5074473;28;20043;-72
2022/10/10 07:48:26;;;;;;;11.63;7.18;;;;;;;;;;5057437;28;20487;-72
2022/10/10 07:50:52;;;;;;;18.40;7.95;;;;;;;;;;5072760;28;20502;-71
2022/10/10 07:53:19;;;;;;;10.82;7.47;;;;;;;;;;5072654;28;20039;-74
2022/10/10 07:55:45;;;;;;;13.32;7.60;;;;;;;;;;5057843;28;20044;-71
2022/10/10 07:58:11;;;;;;;15.45;6.90;;;;;;;;;;5039297;28;20039;-71
2022/10/10 08:00:40;;;;;;;12.45;7.38;;;;;;;;;;5073247;28;20375;-72
2022/10/10 08:03:07;;;;;;;12.52;7.47;;;;;;;;;;5074119;28;20052;-71
2022/10/10 08:05:33;;;;;;;14.00;7.30;;;;;;;;;;5075235;28;20119;-71
2022/10/10 08:07:59;;;;;;;10.88;7.47;;;;;;;;;;5069318;28;20584;-71
2022/10/10 08:10:27;;;;;;;15.02;7.93;;;;;;;;;;5074149;28;20031;-71
2022/10/10 08:12:53;;;;;;;12.85;8.23;;;;;;;;;;5072615;28;20033;-71
2022/10/10 08:15:19;;;;;;;17.73;9.48;;;;;;;;;;5058542;28;20453;-71
2022/10/10 08:17:45;;;;;;;14.90;7.75;;;;;;;;;;5055411;28;20040;-71
2022/10/10 08:20:11;;;;;;;14.98;7.68;;;;;;;;;;5073407;28;20058;-71
2022/10/10 08:22:37;;;;;;;13.73;8.27;;;;;;;;;;5072838;28;20032;-72
2022/10/10 08:25:09;;;;;;;12.68;8.25;;;;;;;;;;5072918;28;20059;-71
2022/10/10 08:27:36;;;;;;;10.95;8.07;;;;;;;;;;5073552;28;20048;-71
2022/10/10 08:30:02;;;;;;;15.77;8.18;;;;;;;;;;5074789;28;20067;-71
2022/10/10 08:32:28;;;;;;;13.68;8.35;;;;;;;;;;5058035;28;20130;-71
2022/10/10 08:34:54;;;;;;;16.27;8.63;;;;;;;;;;5057431;28;20048;-72
2022/10/10 08:37:20;;;;;;;15.15;8.93;;;;;;;;;;5075040;28;20032;-71
2022/10/10 08:39:46;;;;;;;15.45;8.68;;;;;;;;;;5074834;28;20047;-71
2022/10/10 08:42:32;;;;;;;12.65;8.25;;;;;;;;;;5074155;28;20054;-71
2022/10/10 08:45:02;;;;;;;13.60;8.48;;;;;;;;;;5056496;28;20045;-71
2022/10/10 08:47:39;;;;;;;16.52;8.57;;;;;;;;;;5074727;28;20117;-71
2022/10/10 08:50:22;;;;;;;15.65;9.13;;;;;;;;;;5042204;28;20457;-71
2022/10/10 08:52:52;;;;;;;13.75;9.25;;;;;;;;;;5058014;28;20502;-71
2022/10/10 08:55:29;;;;;;;18.33;8.90;;;;;;;;;;5075049;28;20119;-71
2022/10/10 08:57:55;;;;;;;13.77;9.30;;;;;;;;;;5058418;28;20377;-71
2022/10/10 09:00:23;;;;;;;15.13;8.75;;;;;;;;;;5074822;28;20040;-71
2022/10/10 09:02:55;;;;;;;20.75;8.73;;;;;;;;;;5074571;28;20437;-71
2022/10/10 09:05:28;;;;;;;15.85;9.27;;;;;;;;;;5073667;28;20510;-71
2022/10/10 09:08:09;;;;;;;19.17;10.38;;;;;;;;;;5074963;28;20040;-71
2022/10/10 09:10:51;;;;;;;17.25;9.23;;;;;;;;;;5074774;28;20043;-72
2022/10/10 09:13:24;;;;;;;14.75;9.38;;;;;;;;;;5074847;28;20040;-72
2022/10/10 09:15:56;;;;;;;14.07;9.15;;;;;;;;;;5057763;28;20031;-72
2022/10/10 09:18:42;;;;;;;16.47;10.73;;;;;;;;;;5057968;28;20036;-72
2022/10/10 09:21:08;;;;;;;15.65;9.43;;;;;;;;;;5045120;28;20110;-71
2022/10/10 09:23:36;;;;;;;22.70;10.07;;;;;;;;;;5065842;28;20040;-71
2022/10/10 09:26:06;;;;;;;17.35;9.50;;;;;;;;;;5057597;28;20040;-71
2022/10/10 09:28:38;;;;;;;18.00;9.18;;;;;;;;;;5074482;28;20043;-71
2022/10/10 09:31:31;;;;;;;22.35;10.10;;;;;;;;;;5074330;28;20089;-71
2022/10/10 09:34:00;;;;;;;16.15;10.02;;;;;;;;;;5071470;28;20470;-71
2022/10/10 09:36:30;;;;;;;14.30;9.18;;;;;;;;;;5077834;28;20556;-72
2022/10/10 09:38:58;;;;;;;14.43;8.25;;;;;;;;;;5060881;28;20433;-71
2022/10/10 09:41:34;;;;;;;16.50;9.02;;;;;;;;;;5077597;28;20050;-72
2022/10/10 09:44:04;;;;;;;19.17;10.05;;;;;;;;;;5077644;28;20075;-72
2022/10/10 09:46:30;;;;;;;20.08;9.93;;;;;;;;;;5077344;28;20040;-72
2022/10/10 09:48:57;;;;;;;20.83;9.73;;;;;;;;;;5060510;28;20074;-71
2022/10/10 09:51:23;;;;;;;16.63;9.82;;;;;;;;;;5061516;28;20035;-71
2022/10/10 09:53:49;;;;;;;18.88;9.90;;;;;;;;;;5077759;28;20036;-72
2022/10/10 09:56:23;;;;;;;18.70;10.23;;;;;;;;;;5077962;28;20143;-71
2022/10/10 09:58:51;;;;;;;18.05;9.40;;;;;;;;;;5060938;28;20477;-71
2022/10/10 10:01:18;;;;;;;15.48;9.07;;;;;;;;;;5077855;28;20044;-71
2022/10/10 10:04:02;;;;;;;20.70;8.95;;;;;;;;;;5077439;28;20387;-68
2022/10/10 10:06:29;;;;;;;22.80;9.18;;;;;;;;;;5063715;28;20537;-71
2022/10/10 10:09:00;;;;;;;16.30;9.52;;;13.80;99.90;;;;;;5060307;28;20040;-70
2022/10/10 10:11:38;;;;;;;19.95;10.15;;;;;;;;;;5076548;28;20048;-70
2022/10/10 10:14:04;;;;;;;17.98;9.35;;;;;;;;;;5077138;28;20122;-69
2022/10/10 10:16:33;;;;;;;16.58;9.40;;;14.10;99.90;;;;;;5077659;28;20040;-70
2022/10/10 10:19:00;;;;;;;17.42;9.70;;;;;;;;;;5077806;28;20048;-71
2022/10/10 10:21:26;;;;;;;20.10;10.23;;;;;;;;;;5061155;28;20071;-70
2022/10/10 10:23:56;;;;;;;17.90;9.73;;;14.10;99.90;;;;;;5061064;28;20403;-70
2022/10/10 10:26:43;;;;;;;17.50;10.60;;;;;;;;;;5077653;28;20037;-70
2022/10/10 10:29:31;;;;;;;22.65;10.20;;;13.90;99.90;;;;;;5077235;28;20079;-71
2022/10/10 10:31:57;;;;;;;23.42;11.13;;;;;;;;;;5077558;28;20040;-71
2022/10/10 10:34:34;;;;;;;20.30;10.57;;;;;;;;;;5077303;28;20081;-70
2022/10/10 10:37:03;;;;;;;21.50;10.30;;;;;;;;;;5077254;28;20036;-70
2022/10/10 10:39:49;;;;;;;24.40;10.77;;;14.10;99.90;;;;;;5077170;28;20040;-71
2022/10/10 10:42:15;;;;;;;17.08;10.57;;;;;;;;;;5077145;28;20048;-70
2022/10/10 10:44:49;;;;;;;16.50;10.70;;;;;;;;;;5060410;28;20043;-71
2022/10/10 10:47:42;;;;;;;24.40;11.55;;;14.00;99.90;;;;;;5075893;28;20514;-71
2022/10/10 10:50:29;;;;;;;19.65;10.43;;;14.20;99.90;;;;;;5076904;28;20055;-71
2022/10/10 10:53:22;;;;;;;15.02;10.68;;;;;;;;;;5076742;28;20097;-71
2022/10/10 10:56:09;;;;;;;18.95;9.50;;;14.10;99.90;;;;;;5039609;28;20090;-71
2022/10/10 10:58:35;;;;;;;24.33;10.80;;;;;;;;;;5076807;28;20040;-71
2022/10/10 11:01:04;;;;;;;18.85;11.18;;;14.00;99.90;;;;;;5076921;28;20040;-70
2022/10/10 11:03:39;;;;;;;20.75;10.75;;;14.00;99.90;;;;;;5076788;28;20047;-71
2022/10/10 11:06:20;;;;;;;22.23;11.13;;;13.80;99.90;;;;;;5076658;28;20040;-71
2022/10/10 11:08:58;;;;;;;23.77;11.00;;;14.10;99.90;;;;;;5076538;28;20036;-76
2022/10/10 11:11:50;;;;;;;22.88;10.27;;;13.90;99.90;;;;;;5058993;28;20099;-69
2022/10/10 11:14:25;;;;;;;21.23;12.17;;;;;;;;;;5058985;28;20494;-68
2022/10/10 11:16:58;;;;;;;19.85;10.38;;;13.90;99.90;;;;;;5076463;28;20040;-68
2022/10/10 11:19:24;;;;;;;20.02;10.80;;;;;;;;;;5076324;28;20115;-68
2022/10/10 11:21:54;;;;;;;27.23;11.73;;;;;;;;;;5059650;28;20043;-68
2022/10/10 11:24:29;;;;;;;51.30;13.00;;;;;;;;;;5076051;28;20131;-68
2022/10/10 11:26:56;;;;;;;24.23;12.43;;;;;;;;;;5076215;28;20040;-68
2022/10/10 11:29:25;;;;;;;21.73;11.68;;;;;;;;;;5075405;28;20079;-69
2022/10/10 11:31:54;;;;;;;20.23;12.15;;;;;;;;;;5075817;28;20138;-69
2022/10/10 11:34:33;;;;;;;20.80;11.68;;;;;;;;;;5074248;28;20040;-70
2022/10/10 11:37:06;;;;;;;27.55;11.88;;;14.00;99.90;;;;;;5056025;28;20068;-70
2022/10/10 11:39:38;;;;;;;20.85;10.70;;;14.30;99.90;;;;;;5073615;28;20361;-70
2022/10/10 11:42:20;;;;;;;24.45;11.13;;;14.30;99.90;;;;;;5075607;28;20093;-70
2022/10/10 11:44:55;;;;;;;19.25;11.05;;;14.00;99.90;;;;;;5075192;28;20044;-70
2022/10/10 11:47:21;;;;;;;21.45;11.25;;;;;;;;;;5059206;28;20080;-70
2022/10/10 11:50:02;;;;;;;21.00;11.13;;;;;;;;;;5075395;28;20458;-71
2022/10/10 11:52:44;;;;;;;19.23;10.90;;;;;;;;;;5075446;28;20047;-71
2022/10/10 11:55:21;;;;;;;18.48;10.68;;;14.00;99.90;;;;;;5075525;28;20133;-70
2022/10/10 11:58:06;;;;;;;21.98;11.85;;;14.10;99.90;;;;;;5075995;28;20044;-70
2022/10/10 12:00:39;;;;;;;22.98;11.73;;;14.00;99.90;;;;;;5075279;28;20077;-70
2022/10/10 12:03:07;;;;;;;26.60;12.18;;;;;;;;;;5058492;28;20047;-70
2022/10/10 12:05:37;;;;;;;24.00;11.45;;;;;;;;;;5075262;28;20039;-71
2022/10/10 12:08:34;;;;;;;20.95;11.82;;;13.90;99.90;;;;;;5075335;28;20094;-70
2022/10/10 12:11:06;;;;;;;21.33;11.18;;;;;;;;;;5075288;28;20048;-70
2022/10/10 12:13:40;;;;;;;17.70;11.38;;;13.80;99.90;;;;;;5075316;28;20044;-70
2022/10/10 12:16:09;;;;;;;24.05;11.73;;;13.70;99.90;;;;;;5074401;28;20032;-72
2022/10/10 12:19:06;;;;;;;23.10;11.98;;;13.70;99.90;;;;;;5074108;28;20040;-72
2022/10/10 12:21:50;;;;;;;21.10;12.43;;;;;;;;;;5053338;28;20063;-72
2022/10/10 12:24:16;;;;;;;24.98;13.15;;;;;;;;;;5071451;28;20120;-72
2022/10/10 12:26:51;;;;;;;23.88;11.32;;;13.90;99.90;;;;;;5058280;28;20036;-69
2022/10/10 12:30:05;;;;;;;23.38;11.05;;;13.90;99.90;;;;;;5072984;28;20047;-71
2022/10/10 12:32:42;;;;;;;11.57;7.15;;;;;;;;;;5086988;28;20119;-70
2022/10/10 12:35:27;;;;;;;18.75;6.47;;;;;;;;;;5073831;28;20182;-69
2022/10/10 12:38:04;;;;;;;10.85;5.20;;;13.90;99.90;;;;;;5056722;28;20040;-70
2022/10/10 12:40:31;;;;;;;10.32;2.50;;;;;;;;;;5073561;28;20123;-69
2022/10/10 12:42:57;;;;;;;10.52;1.98;;;;;;;;;;5072049;28;20502;-70
2022/10/10 12:45:29;;;;;;;15.77;2.35;;;13.60;99.90;;;;;;5057744;28;20067;-70
2022/10/10 12:48:00;;;;;;;8.82;1.77;;;;;;;;;;5074467;28;20036;-69
2022/10/10 12:50:26;;;;;;;10.80;3.30;;;;;;;;;;5072804;28;20040;-70
2022/10/10 12:52:54;;;;;;;8.32;2.00;;;;;;;;;;5074233;28;20024;-70
2022/10/10 12:55:41;;;;;;;20.77;2.67;;;13.30;99.90;;;;;;5071088;28;20040;-69
2022/10/10 12:58:09;;;;;;;15.52;3.00;;;;;;;;;;5072914;28;20038;-69
2022/10/10 13:00:37;;;;;;;14.25;2.92;;;;;;;;;;5072471;28;20078;-69
2022/10/10 13:03:10;;;;;;;11.98;2.10;;;13.00;99.90;;;;;;5072843;28;20509;-69
2022/10/10 13:05:39;;;;;;;12.40;1.65;;;12.60;99.90;;;;;;5073005;28;20053;-69
2022/10/10 13:08:07;;;;;;;13.20;2.13;;;;;;;;;;5072634;28;20032;-70
2022/10/10 13:10:33;;;;;;;16.20;2.00;;;;;;;;;;5059500;28;20039;-70
2022/10/10 13:13:00;;;;;;;10.85;1.70;;;;;;;;;;5075153;28;20048;-68
2022/10/10 13:15:26;;;;;;;14.05;2.03;;;;;;;;;;5076940;28;20506;-70
2022/10/10 13:17:52;;;;;;;12.73;1.77;;;;;;;;;;5075827;28;20162;-70
2022/10/10 13:20:30;;;;;;;14.50;2.25;;;12.50;99.90;;;;;;5062032;28;20066;-70
2022/10/10 13:22:56;;;;;;;14.52;2.45;;;;;;;;;;5084804;28;20032;-70
2022/10/10 13:25:25;;;;;;;17.52;3.67;;;;;;;;;;5089017;28;20396;-70
2022/10/10 13:27:52;;;;;;;17.33;2.42;;;;;;;;;;5065653;28;20033;-70
2022/10/10 13:30:20;;;;;;;17.38;3.25;;;12.30;99.90;;;;;;5075744;28;20040;-69
2022/10/10 13:32:46;;;;;;;11.80;1.95;;;;;;;;;;5077903;28;20090;-71
2022/10/10 13:35:41;;;;;;;15.57;2.42;;;12.50;99.90;;;;;;5061751;28;20040;-69
2022/10/10 13:38:07;;;;;;;18.23;2.72;;;;;;;;;;5060753;28;20070;-69
2022/10/10 13:40:33;;;;;;;18.75;2.67;;;;;;;;;;5061344;28;20133;-69
2022/10/10 13:42:59;;;;;;;18.17;2.58;;;;;;;;;;5077232;28;20032;-69
2022/10/10 13:45:37;;;;;;;15.02;2.53;;;12.80;99.90;;;;;;5076788;28;20036;-69
2022/10/10 13:48:03;;;;;;;13.13;2.08;;;;;;;;;;5075347;28;20056;-68
2022/10/10 13:50:34;;;;;;;15.38;2.42;;;;;;;;;;5078008;28;20044;-69
2022/10/10 13:53:27;;;;;;;16.02;2.17;;;13.30;99.90;;;;;;5077728;28;20503;-69
2022/10/10 13:56:06;;;;;;;11.75;2.25;;;;;;;;;;5077986;28;20036;-69
2022/10/10 13:58:52;;;;;;;17.90;2.15;;;;;;;;;;5078021;28;20040;-69
2022/10/10 14:01:18;;;;;;;16.98;3.10;;;;;;;;;;5077417;28;20135;-69
2022/10/10 14:03:46;;;;;;;22.00;2.83;;;;;;;;;;5077909;28;20043;-69
2022/10/10 14:06:20;;;;;;;19.08;3.17;;;13.50;99.90;;;;;;5077507;28;20067;-69
2022/10/10 14:08:47;;;;;;;19.85;2.97;;;13.40;99.90;;;;;;5077580;28;20040;-69
2022/10/10 14:11:21;;;;;;;22.75;3.47;;;13.40;99.90;;;;;;5077434;28;20040;-69
2022/10/10 14:13:49;;;;;;;21.65;3.03;;;;;;;;;;5077701;28;20044;-70
2022/10/10 14:16:18;;;;;;;18.42;3.03;;;;;;;;;;5077636;28;20387;-70
2022/10/10 14:18:45;;;;;;;19.45;3.10;;;;;;;;;;5060924;28;20044;-69
2022/10/10 14:21:12;;;;;;;16.88;2.75;;;;;;;;;;5060613;28;20082;-69
2022/10/10 14:23:38;;;;;;;23.83;2.63;;;;;;;;;;5061123;28;20485;-69
2022/10/10 14:26:06;;;;;;;18.27;2.30;;;14.20;99.90;;;;;;5060280;28;20503;-70
2022/10/10 14:28:33;;;;;;;22.08;3.97;;;;;;;;;;5077420;28;20145;-69
2022/10/10 14:30:59;;;;;;;16.02;2.50;;;;;;;;;;5060701;28;20416;-70